Time;durP1;ratioP1;P1;durP2;ratioP2;P2;SDS_P1;SDS_P2;PMS_P1;PMS_P2;Temp;Humidity;BMP_temperature;BMP_pressure;BME280_temperature;BME280_humidity;BME280_pressure;Samples;Min_cycle;Max_cycle;Signal;HPM_P1;HPM_P2
2022/01/11 00:00:10;;;;;;;1999.90;999.90;;;4.70;99.90;;;;;;5055284;28;20447;-72
2022/01/11 00:02:40;;;;;;;1999.90;999.90;;;4.80;99.90;;;;;;5054704;28;20458;-71
2022/01/11 00:05:08;;;;;;;1999.90;999.90;;;4.80;99.90;;;;;;5055152;28;20569;-72
2022/01/11 00:07:35;;;;;;;1999.90;999.90;;;4.80;99.90;;;;;;5054233;28;20485;-72
2022/01/11 00:10:06;;;;;;;1999.90;999.90;;;4.70;99.90;;;;;;5052609;28;20457;-73
2022/01/11 00:12:34;;;;;;;1999.90;999.90;;;4.80;99.90;;;;;;5053426;28;20462;-73
2022/01/11 00:15:01;;;;;;;1999.90;999.90;;;4.80;99.90;;;;;;5053014;28;20463;-72
2022/01/11 00:17:27;;;;;;;1999.90;999.90;;;4.80;99.90;;;;;;5053630;28;20442;-72
2022/01/11 00:19:54;;;;;;;1999.90;999.90;;;4.80;99.90;;;;;;5053296;28;20451;-72
2022/01/11 00:22:27;;;;;;;1999.90;999.90;;;4.80;99.90;;;;;;5053274;28;20458;-72
2022/01/11 00:24:52;;;;;;;1999.90;999.90;;;4.80;99.90;;;;;;5060534;28;20560;-71
2022/01/11 00:27:19;;;;;;;1999.90;999.90;;;4.80;99.90;;;;;;5074271;28;20541;-72
2022/01/11 00:29:51;;;;;;;1999.90;999.90;;;4.70;99.90;;;;;;5069825;28;20199;-71
2022/01/11 00:32:27;;;;;;;1999.90;999.90;;;4.70;99.90;;;;;;5073760;28;20438;-71
2022/01/11 00:34:55;;;;;;;1999.90;999.90;;;4.70;99.90;;;;;;5065865;28;20557;-72
2022/01/11 00:37:22;;;;;;;1999.90;999.90;;;4.60;99.90;;;;;;5053345;28;20450;-72
2022/01/11 00:39:50;;;;;;;1999.90;999.90;;;4.70;99.90;;;;;;5061835;28;20499;-72
2022/01/11 00:42:18;;;;;;;1999.90;999.90;;;4.60;99.90;;;;;;5073144;28;20555;-71
2022/01/11 00:44:46;;;;;;;1999.90;999.90;;;4.60;99.90;;;;;;5064932;28;20482;-71
2022/01/11 00:47:13;;;;;;;1999.90;999.90;;;4.60;99.90;;;;;;5065279;28;20449;-72
2022/01/11 00:49:40;;;;;;;1999.90;999.90;;;4.50;99.90;;;;;;5065897;28;20480;-74
2022/01/11 00:52:08;;;;;;;1999.90;999.90;;;4.40;99.90;;;;;;5052166;28;20541;-71
2022/01/11 00:54:35;;;;;;;1999.90;999.90;;;4.30;99.90;;;;;;5057201;28;20499;-72
2022/01/11 00:57:02;;;;;;;1999.90;999.90;;;4.30;99.90;;;;;;5067000;28;20458;-72
2022/01/11 00:59:28;;;;;;;1999.90;999.90;;;4.30;99.90;;;;;;5055525;28;20465;-73
2022/01/11 01:01:56;;;;;;;1999.90;999.90;;;4.20;99.90;;;;;;5071844;28;20940;-72
2022/01/11 01:04:23;;;;;;;1999.90;999.90;;;4.20;99.90;;;;;;5070562;28;20880;-72
2022/01/11 01:06:50;;;;;;;1999.90;999.90;;;4.20;99.90;;;;;;5072288;28;20479;-72
2022/01/11 01:09:16;;;;;;;1999.90;999.90;;;4.20;99.90;;;;;;5062372;28;20503;-71
2022/01/11 01:11:45;;;;;;;1999.90;999.90;;;4.20;99.90;;;;;;5052126;28;20983;-71
2022/01/11 01:14:12;;;;;;;1999.90;999.90;;;4.10;99.90;;;;;;5060061;28;20456;-73
2022/01/11 01:16:39;;;;;;;1999.90;999.90;;;4.10;99.90;;;;;;5072094;28;20523;-72
2022/01/11 01:19:07;;;;;;;1999.90;999.90;;;4.00;99.90;;;;;;5064794;28;21008;-72
2022/01/11 01:21:37;;;;;;;1999.90;999.90;;;4.00;99.90;;;;;;5052057;28;20577;-73
2022/01/11 01:24:06;;;;;;;1999.90;999.90;;;4.00;99.90;;;;;;5057981;28;20488;-71
2022/01/11 01:26:33;;;;;;;1999.90;999.90;;;4.00;99.90;;;;;;5056173;28;20822;-72
2022/01/11 01:29:00;;;;;;;1999.90;999.90;;;4.00;99.90;;;;;;5066484;28;20499;-72
2022/01/11 01:31:27;;;;;;;1999.90;999.90;;;4.00;99.90;;;;;;5053929;28;20453;-72
2022/01/11 01:33:55;;;;;;;1999.90;999.90;;;3.90;99.90;;;;;;5071781;28;20945;-71
2022/01/11 01:36:23;;;;;;;1999.90;999.90;;;3.90;99.90;;;;;;5070666;28;20498;-72
2022/01/11 01:38:50;;;;;;;1999.90;999.90;;;3.90;99.90;;;;;;5051519;28;20812;-72
2022/01/11 01:41:18;;;;;;;1999.90;999.90;;;3.90;99.90;;;;;;5067307;28;20445;-72
2022/01/11 01:43:48;;;;;;;1999.90;999.90;;;3.90;99.90;;;;;;5071550;28;20461;-71
2022/01/11 01:46:16;;;;;;;1999.90;999.90;;;3.80;99.90;;;;;;5055866;28;21013;-71
2022/01/11 01:48:43;;;;;;;1999.90;999.90;;;3.90;99.90;;;;;;5051654;28;20445;-71
2022/01/11 01:51:11;;;;;;;1999.90;999.90;;;3.90;99.90;;;;;;5064673;28;20445;-71
2022/01/11 01:53:42;;;;;;;1999.90;999.90;;;3.90;99.90;;;;;;5071465;28;20502;-71
2022/01/11 01:56:10;;;;;;;1999.90;999.90;;;3.90;99.90;;;;;;5063673;28;20465;-72
2022/01/11 01:58:37;;;;;;;1999.90;999.90;;;3.90;99.90;;;;;;5070053;28;20503;-71
2022/01/11 02:01:05;;;;;;;1999.90;999.90;;;4.00;99.90;;;;;;5053374;28;20868;-72
2022/01/11 02:03:38;;;;;;;1999.90;999.90;;;4.00;99.90;;;;;;5049842;28;20450;-72
2022/01/11 02:06:06;;;;;;;1999.90;999.90;;;4.00;99.90;;;;;;5064489;28;20492;-72
2022/01/11 02:08:33;;;;;;;1999.90;999.90;;;4.00;99.90;;;;;;5067634;28;20441;-71
2022/01/11 02:11:01;;;;;;;1999.90;999.90;;;3.90;99.90;;;;;;5063391;28;20547;-73
2022/01/11 02:13:30;;;;;;;1999.90;999.90;;;3.90;99.90;;;;;;5071257;28;20449;-73
2022/01/11 02:15:57;;;;;;;1999.90;999.90;;;3.90;99.90;;;;;;5057835;28;20466;-72
2022/01/11 02:18:27;;;;;;;1999.90;999.90;;;4.00;99.90;;;;;;5051744;28;20497;-72
2022/01/11 02:20:58;;;;;;;1999.90;999.90;;;4.00;99.90;;;;;;5065212;28;21022;-71
2022/01/11 02:23:27;;;;;;;1999.90;999.90;;;4.00;99.90;;;;;;5068621;28;20450;-72
2022/01/11 02:25:54;;;;;;;1999.90;999.90;;;4.00;99.90;;;;;;5065412;28;20541;-72
2022/01/11 02:28:23;;;;;;;1999.90;999.90;;;4.00;99.90;;;;;;5075154;28;20445;-72
2022/01/11 02:30:51;;;;;;;1999.90;999.90;;;4.00;99.90;;;;;;5064106;28;20872;-73
2022/01/11 02:33:32;;;;;;;1999.90;999.90;;;4.00;99.90;;;;;;5055071;28;20958;-72
2022/01/11 02:36:02;;;;;;;1999.90;999.90;;;4.00;99.90;;;;;;5054881;28;20974;-72
2022/01/11 02:38:28;;;;;;;1999.90;999.90;;;4.00;99.90;;;;;;5068946;28;20498;-72
2022/01/11 02:40:55;;;;;;;1999.90;999.90;;;4.00;99.90;;;;;;5054915;28;20446;-71
2022/01/11 02:43:22;;;;;;;1999.90;999.90;;;4.00;99.90;;;;;;5054993;28;20458;-72
2022/01/11 02:45:49;;;;;;;1999.90;999.90;;;4.00;99.90;;;;;;5072202;28;20485;-71
2022/01/11 02:48:15;;;;;;;1999.90;999.90;;;3.90;99.90;;;;;;5074982;28;20445;-72
2022/01/11 02:50:42;;;;;;;1999.90;999.90;;;3.90;99.90;;;;;;5061195;28;20446;-72
2022/01/11 02:53:10;;;;;;;1999.90;999.90;;;3.90;99.90;;;;;;5056605;28;20511;-71
2022/01/11 02:55:39;;;;;;;1999.90;999.90;;;4.00;99.90;;;;;;5054568;28;20473;-72
2022/01/11 02:58:06;;;;;;;1999.90;999.90;;;4.00;99.90;;;;;;5054469;28;20449;-72
2022/01/11 03:00:33;;;;;;;1999.90;999.90;;;3.90;99.90;;;;;;5067555;28;20456;-71
2022/01/11 03:03:10;;;;;;;1999.90;999.90;;;4.00;99.90;;;;;;5072809;28;20446;-72
2022/01/11 03:05:37;;;;;;;1999.90;999.90;;;3.90;99.90;;;;;;5072151;28;20488;-72
2022/01/11 03:08:04;;;;;;;1999.90;999.90;;;3.90;99.90;;;;;;5062597;28;20454;-72
2022/01/11 03:10:33;;;;;;;1999.90;999.90;;;3.90;99.90;;;;;;5074052;28;20511;-72
2022/01/11 03:13:00;;;;;;;1999.90;999.90;;;4.00;99.90;;;;;;5067161;28;20454;-72
2022/01/11 03:15:27;;;;;;;1999.90;999.90;;;3.90;99.90;;;;;;5054024;28;20516;-74
2022/01/11 03:17:54;;;;;;;1999.90;999.90;;;3.90;99.90;;;;;;5054578;28;20446;-72
2022/01/11 03:20:21;;;;;;;1999.90;999.90;;;3.90;99.90;;;;;;5059122;28;20888;-72
2022/01/11 03:22:47;;;;;;;1999.90;999.90;;;3.90;99.90;;;;;;5072182;28;20503;-73
2022/01/11 03:25:16;;;;;;;1999.90;999.90;;;3.90;99.90;;;;;;5062511;28;20489;-71
2022/01/11 03:27:44;;;;;;;1999.90;999.90;;;3.90;99.90;;;;;;5074421;28;20489;-72
2022/01/11 03:30:12;;;;;;;1999.90;999.90;;;3.90;99.90;;;;;;5073678;28;20934;-72
2022/01/11 03:32:39;;;;;;;1999.90;999.90;;;3.90;99.90;;;;;;5072952;28;20933;-71
2022/01/11 03:35:07;;;;;;;1999.90;999.90;;;3.90;99.90;;;;;;5065703;28;20520;-71
2022/01/11 03:37:34;;;;;;;1999.90;999.90;;;3.90;99.90;;;;;;5059424;28;20492;-71
2022/01/11 03:40:01;;;;;;;1999.90;999.90;;;3.90;99.90;;;;;;5073764;28;20499;-73
2022/01/11 03:42:27;;;;;;;1999.90;999.90;;;3.90;99.90;;;;;;5069215;28;20451;-72
2022/01/11 03:44:55;;;;;;;1999.90;999.90;;;4.00;99.90;;;;;;5053735;28;20486;-71
2022/01/11 03:47:23;;;;;;;1999.90;999.90;;;4.10;99.90;;;;;;5071687;28;20507;-72
2022/01/11 03:49:50;;;;;;;1999.90;999.90;;;4.10;99.90;;;;;;5062386;28;20516;-72
2022/01/11 03:52:16;;;;;;;1999.90;999.90;;;4.10;99.90;;;;;;5069940;28;20456;-72
2022/01/11 03:55:01;;;;;;;1999.90;999.90;;;4.10;99.90;;;;;;5073677;28;20458;-72
2022/01/11 03:57:30;;;;;;;1999.90;999.90;;;4.10;99.90;;;;;;5056286;28;20856;-72
2022/01/11 03:59:59;;;;;;;1999.90;999.90;;;4.20;99.90;;;;;;5053314;28;20511;-73
2022/01/11 04:02:26;;;;;;;1999.90;999.90;;;4.20;99.90;;;;;;5070260;28;20449;-72
2022/01/11 04:04:53;;;;;;;1999.90;999.90;;;4.20;99.90;;;;;;5054986;28;20524;-72
2022/01/11 04:07:20;;;;;;;1999.90;999.90;;;4.20;99.90;;;;;;5068896;28;20477;-72
2022/01/11 04:09:47;;;;;;;1999.90;999.90;;;4.20;99.90;;;;;;5073649;28;20454;-73
2022/01/11 04:12:14;;;;;;;1999.90;999.90;;;4.20;99.90;;;;;;5068479;28;20512;-72
2022/01/11 04:14:40;;;;;;;1999.90;999.90;;;4.30;99.90;;;;;;5053416;28;20462;-72
2022/01/11 04:17:09;;;;;;;1999.90;999.90;;;4.20;99.90;;;;;;5065450;28;20458;-71
2022/01/11 04:19:35;;;;;;;1999.90;999.90;;;4.30;99.90;;;;;;5072709;28;20529;-72
2022/01/11 04:22:02;;;;;;;1999.90;999.90;;;4.20;99.90;;;;;;5061645;28;20450;-73
2022/01/11 04:24:29;;;;;;;1999.90;999.90;;;4.20;99.90;;;;;;5052942;28;20450;-72
2022/01/11 04:26:56;;;;;;;1999.90;999.90;;;4.20;99.90;;;;;;5062246;28;20487;-72
2022/01/11 04:29:23;;;;;;;1999.90;999.90;;;4.20;99.90;;;;;;5072675;28;20494;-72
2022/01/11 04:31:50;;;;;;;1999.90;999.90;;;4.10;99.90;;;;;;5068531;28;20461;-72
2022/01/11 04:34:18;;;;;;;1999.90;999.90;;;4.10;99.90;;;;;;5067735;28;21008;-72
2022/01/11 04:36:44;;;;;;;1999.90;999.90;;;4.10;99.90;;;;;;5052942;28;20503;-72
2022/01/11 04:39:13;;;;;;;1999.90;999.90;;;4.20;99.90;;;;;;5056188;28;20453;-72
2022/01/11 04:41:40;;;;;;;1999.90;999.90;;;4.20;99.90;;;;;;5072546;28;20503;-74
2022/01/11 04:44:07;;;;;;;1999.90;999.90;;;4.20;99.90;;;;;;5071874;28;20426;-72
2022/01/11 04:46:34;;;;;;;1999.90;999.90;;;4.20;99.90;;;;;;5065694;28;20908;-73
2022/01/11 04:49:01;;;;;;;1999.90;999.90;;;4.10;99.90;;;;;;5053538;28;20500;-72
2022/01/11 04:51:33;;;;;;;1999.90;999.90;;;4.10;99.90;;;;;;5071900;28;21007;-73
2022/01/11 04:54:00;;;;;;;1999.90;999.90;;;4.20;99.90;;;;;;5072059;28;20487;-71
2022/01/11 04:56:26;;;;;;;1999.90;999.90;;;4.20;99.90;;;;;;5052354;28;20493;-71
2022/01/11 04:58:53;;;;;;;1999.90;999.90;;;4.10;99.90;;;;;;5052368;28;20938;-71
2022/01/11 05:01:20;;;;;;;1999.90;999.90;;;4.00;99.90;;;;;;5058947;28;20450;-72
2022/01/11 05:03:46;;;;;;;1999.90;999.90;;;4.10;99.90;;;;;;5052863;28;20450;-72
2022/01/11 05:06:13;;;;;;;1999.90;999.90;;;4.20;99.90;;;;;;5053748;28;20482;-72
2022/01/11 05:08:42;;;;;;;1999.90;999.90;;;4.20;99.90;;;;;;5051932;28;20496;-71
2022/01/11 05:11:09;;;;;;;1999.90;999.90;;;4.10;99.90;;;;;;5051878;28;20813;-71
2022/01/11 05:13:36;;;;;;;1999.90;999.90;;;4.10;99.90;;;;;;5052298;28;20430;-73
2022/01/11 05:16:03;;;;;;;1999.90;999.90;;;4.20;99.90;;;;;;5051725;28;20500;-72
2022/01/11 05:18:30;;;;;;;1999.90;999.90;;;4.20;99.90;;;;;;5052508;28;20545;-71
2022/01/11 05:20:56;;;;;;;1999.90;999.90;;;4.20;99.90;;;;;;5051476;28;20454;-74
2022/01/11 05:23:23;;;;;;;1999.90;999.90;;;4.20;99.90;;;;;;5052346;28;20446;-72
2022/01/11 05:25:51;;;;;;;1999.90;999.90;;;4.20;99.90;;;;;;5051909;28;20485;-72
2022/01/11 05:28:18;;;;;;;1999.90;999.90;;;4.20;99.90;;;;;;5052413;28;20869;-71
2022/01/11 05:30:45;;;;;;;1999.90;999.90;;;4.30;99.90;;;;;;5051666;28;20450;-72
2022/01/11 05:33:11;;;;;;;1999.90;999.90;;;4.20;99.90;;;;;;5051803;28;20442;-74
2022/01/11 05:35:38;;;;;;;1999.90;999.90;;;4.20;99.90;;;;;;5053562;28;20466;-72
2022/01/11 05:38:05;;;;;;;1999.90;999.90;;;4.20;99.90;;;;;;5052900;28;20866;-72
2022/01/11 05:40:32;;;;;;;1999.90;999.90;;;4.20;99.90;;;;;;5051357;28;20507;-70
2022/01/11 05:43:00;;;;;;;1999.90;999.90;;;4.20;99.90;;;;;;5051603;28;20458;-72
2022/01/11 05:45:26;;;;;;;1999.90;999.90;;;4.20;99.90;;;;;;5051075;28;21040;-72
2022/01/11 05:47:53;;;;;;;1999.90;999.90;;;4.20;99.90;;;;;;5051731;28;20946;-72
2022/01/11 05:50:21;;;;;;;1999.90;999.90;;;4.20;99.90;;;;;;5050935;28;20446;-72
2022/01/11 05:52:49;;;;;;;1999.90;999.90;;;4.20;99.90;;;;;;5051992;28;20500;-72
2022/01/11 05:55:17;;;;;;;1999.90;999.90;;;4.20;99.90;;;;;;5052839;28;20470;-72
2022/01/11 05:57:44;;;;;;;1999.90;999.90;;;4.30;99.90;;;;;;5056016;28;20519;-72
2022/01/11 06:00:15;;;;;;;1999.90;999.90;;;4.30;99.90;;;;;;5055453;28;20477;-72
2022/01/11 06:02:44;;;;;;;1999.90;999.90;;;4.20;99.90;;;;;;5056593;28;20993;-74
2022/01/11 06:05:11;;;;;;;1999.90;999.90;;;4.20;99.90;;;;;;5055844;28;20970;-71
2022/01/11 06:07:39;;;;;;;1999.90;999.90;;;4.30;99.90;;;;;;5055583;28;20458;-72
2022/01/11 06:10:07;;;;;;;1999.90;999.90;;;4.20;99.90;;;;;;5055365;28;20450;-72
2022/01/11 06:12:34;;;;;;;1999.90;999.90;;;4.20;99.90;;;;;;5055270;28;21173;-71
2022/01/11 06:15:01;;;;;;;1999.90;999.90;;;4.30;99.90;;;;;;5055486;28;20978;-72
2022/01/11 06:17:29;;;;;;;1999.90;999.90;;;4.30;99.90;;;;;;5055646;28;20443;-71
2022/01/11 06:19:56;;;;;;;1999.90;999.90;;;4.30;99.90;;;;;;5055607;28;20504;-72
2022/01/11 06:22:24;;;;;;;1999.90;999.90;;;4.30;99.90;;;;;;5055796;28;20458;-72
2022/01/11 06:24:51;;;;;;;1999.90;999.90;;;4.60;99.90;;;;;;5055360;28;20489;-72
2022/01/11 06:27:17;;;;;;;1999.90;999.90;;;4.20;99.90;;;;;;5055065;28;20513;-73
2022/01/11 06:29:44;;;;;;;1999.90;999.90;;;4.30;99.90;;;;;;5055767;28;20500;-71
2022/01/11 06:32:11;;;;;;;1999.90;999.90;;;4.30;99.90;;;;;;5054948;28;20446;-72
2022/01/11 06:34:39;;;;;;;1999.90;999.90;;;4.30;99.90;;;;;;5054707;28;20446;-74
2022/01/11 06:37:06;;;;;;;1999.90;999.90;;;4.30;99.90;;;;;;5055209;28;20892;-71
2022/01/11 06:39:36;;;;;;;1999.90;999.90;;;4.30;99.90;;;;;;5055030;28;21008;-72
2022/01/11 06:42:03;;;;;;;1999.90;999.90;;;4.30;99.90;;;;;;5054114;28;20508;-71
2022/01/11 06:44:30;;;;;;;1999.90;999.90;;;4.30;99.90;;;;;;5055468;28;20446;-71
2022/01/11 06:46:56;;;;;;;1999.90;999.90;;;4.20;99.90;;;;;;5062031;28;20482;-71
2022/01/11 06:49:23;;;;;;;1999.90;999.90;;;4.20;99.90;;;;;;5054316;28;20446;-74
2022/01/11 06:51:51;;;;;;;1999.90;999.90;;;4.10;99.90;;;;;;5071174;28;21010;-71
2022/01/11 06:54:21;;;;;;;1999.90;999.90;;;4.10;99.90;;;;;;5073891;28;20453;-72
2022/01/11 06:56:47;;;;;;;1999.90;999.90;;;4.10;99.90;;;;;;5056883;28;20978;-72
2022/01/11 06:59:14;;;;;;;1999.90;999.90;;;4.10;99.90;;;;;;5054723;28;20938;-72
2022/01/11 07:01:41;;;;;;;1999.90;999.90;;;4.10;99.90;;;;;;5054644;28;20942;-71
2022/01/11 07:04:07;;;;;;;1999.90;999.90;;;4.00;99.90;;;;;;5066792;28;21014;-71
2022/01/11 07:06:34;;;;;;;1999.90;999.90;;;4.00;99.90;;;;;;5073684;28;20884;-72
2022/01/11 07:09:03;;;;;;;1999.90;999.90;;;4.10;99.90;;;;;;5063575;28;20874;-72
2022/01/11 07:11:29;;;;;;;1999.90;999.90;;;4.20;99.90;;;;;;5054969;28;20484;-71
2022/01/11 07:13:56;;;;;;;1999.90;999.90;;;4.20;99.90;;;;;;5064205;28;20551;-71
2022/01/11 07:16:22;;;;;;;1999.90;999.90;;;4.20;99.90;;;;;;5056374;28;20527;-72
2022/01/11 07:18:49;;;;;;;1999.90;999.90;;;4.30;99.90;;;;;;5063244;28;20511;-71
2022/01/11 07:21:16;;;;;;;1999.90;999.90;;;4.30;99.90;;;;;;5074876;28;20458;-72
2022/01/11 07:23:42;;;;;;;1999.90;999.90;;;4.30;99.90;;;;;;5072073;28;20453;-72
2022/01/11 07:26:10;;;;;;;1999.90;999.90;;;4.30;99.90;;;;;;5065385;28;20550;-71
2022/01/11 07:28:37;;;;;;;1999.90;999.90;;;4.30;99.90;;;;;;5075267;28;20449;-72
2022/01/11 07:31:04;;;;;;;1999.90;999.90;;;4.40;99.90;;;;;;5073657;28;20457;-71
2022/01/11 07:33:31;;;;;;;1999.90;999.90;;;4.40;99.90;;;;;;5071473;28;21016;-72
2022/01/11 07:35:59;;;;;;;1999.90;999.90;;;4.40;99.90;;;;;;5058058;28;20515;-72
2022/01/11 07:38:25;;;;;;;1999.90;999.90;;;4.40;99.90;;;;;;5055190;28;20447;-72
2022/01/11 07:40:52;;;;;;;1999.90;999.90;;;4.40;99.90;;;;;;5054738;28;20454;-71
2022/01/11 07:43:20;;;;;;;1999.90;999.90;;;4.40;99.90;;;;;;5074479;28;20457;-72
2022/01/11 07:45:47;;;;;;;1999.90;999.90;;;4.30;99.90;;;;;;5054761;28;20516;-72
2022/01/11 07:48:13;;;;;;;1999.90;999.90;;;4.30;99.90;;;;;;5069816;28;20520;-71
2022/01/11 07:50:40;;;;;;;1999.90;999.90;;;4.30;99.90;;;;;;5072900;28;20441;-73
2022/01/11 07:53:06;;;;;;;1999.90;999.90;;;4.30;99.90;;;;;;5071524;28;20949;-72
2022/01/11 07:55:34;;;;;;;1999.90;999.90;;;4.30;99.90;;;;;;5058949;28;20533;-72
2022/01/11 07:58:00;;;;;;;1999.90;999.90;;;4.30;99.90;;;;;;5054410;28;20439;-73
2022/01/11 08:00:28;;;;;;;1999.90;999.90;;;4.30;99.90;;;;;;5067142;28;20491;-72
2022/01/11 08:02:55;;;;;;;1999.90;999.90;;;4.30;99.90;;;;;;5073088;28;20445;-72
2022/01/11 08:05:22;;;;;;;1999.90;999.90;;;4.30;99.90;;;;;;5059285;28;20473;-72
2022/01/11 08:07:48;;;;;;;1999.90;999.90;;;4.40;99.90;;;;;;5068361;28;20477;-70
2022/01/11 08:10:18;;;;;;;1999.90;999.90;;;4.40;99.90;;;;;;5072566;28;20540;-72
2022/01/11 08:12:45;;;;;;;1999.90;999.90;;;4.30;99.90;;;;;;5073776;28;20507;-72
2022/01/11 08:15:12;;;;;;;1999.90;999.90;;;4.40;99.90;;;;;;5073535;28;20467;-72
2022/01/11 08:17:40;;;;;;;1999.90;999.90;;;4.30;99.90;;;;;;5072690;28;20507;-72
2022/01/11 08:20:08;;;;;;;1999.90;999.90;;;4.30;99.90;;;;;;5073630;28;20441;-72
2022/01/11 08:22:35;;;;;;;1999.90;999.90;;;4.30;99.90;;;;;;5057093;28;20455;-72
2022/01/11 08:25:01;;;;;;;1999.90;999.90;;;4.30;99.90;;;;;;5053302;28;20463;-72
2022/01/11 08:27:28;;;;;;;1999.90;999.90;;;4.30;99.90;;;;;;5053036;28;21204;-72
2022/01/11 08:29:55;;;;;;;1999.90;999.90;;;4.30;99.90;;;;;;5066151;28;20454;-74
2022/01/11 08:32:21;;;;;;;1999.90;999.90;;;4.30;99.90;;;;;;5072256;28;20449;-72
2022/01/11 08:34:49;;;;;;;1999.90;999.90;;;4.20;99.90;;;;;;5072746;28;20469;-72
2022/01/11 08:37:16;;;;;;;1999.90;999.90;;;4.30;99.90;;;;;;5065169;28;20449;-72
2022/01/11 08:39:43;;;;;;;1999.90;999.90;;;4.30;99.90;;;;;;5072244;28;20450;-73
2022/01/11 08:42:13;;;;;;;1999.90;999.90;;;4.30;99.90;;;;;;5061285;28;20499;-72
2022/01/11 08:44:40;;;;;;;1999.90;999.90;;;4.20;99.90;;;;;;5072703;28;20493;-72
2022/01/11 08:47:07;;;;;;;1999.90;999.90;;;4.20;99.90;;;;;;5063559;28;20532;-71
2022/01/11 08:49:33;;;;;;;1999.90;999.90;;;4.20;99.90;;;;;;5056065;28;20458;-72
2022/01/11 08:52:02;;;;;;;1999.90;999.90;;;4.20;99.90;;;;;;5058930;28;21177;-72
2022/01/11 08:54:29;;;;;;;1999.90;999.90;;;4.30;99.90;;;;;;5072370;28;21180;-72
2022/01/11 08:56:56;;;;;;;1999.90;999.90;;;4.20;99.90;;;;;;5065938;28;20434;-72
2022/01/11 08:59:24;;;;;;;1999.90;999.90;;;4.30;99.90;;;;;;5052832;28;20576;-72
2022/01/11 09:01:52;;;;;;;1999.90;999.90;;;4.30;99.90;;;;;;5061734;28;20507;-72
2022/01/11 09:04:20;;;;;;;1999.90;999.90;;;4.20;99.90;;;;;;5072037;28;20449;-72
2022/01/11 09:06:47;;;;;;;1999.90;999.90;;;4.30;99.90;;;;;;5071805;28;20480;-72
2022/01/11 09:09:15;;;;;;;1999.90;999.90;;;4.30;99.90;;;;;;5072771;28;20507;-71
2022/01/11 09:11:42;;;;;;;1999.90;999.90;;;4.40;99.90;;;;;;5053963;28;20512;-72
2022/01/11 09:14:09;;;;;;;1999.90;999.90;;;4.50;99.90;;;;;;5054077;28;20450;-71
2022/01/11 09:16:35;;;;;;;1999.90;999.90;;;4.50;99.90;;;;;;5072399;28;20473;-71
2022/01/11 09:19:02;;;;;;;1999.90;999.90;;;4.60;99.90;;;;;;5073286;28;20446;-72
2022/01/11 09:21:30;;;;;;;1999.90;999.90;;;4.70;99.90;;;;;;5057873;28;20446;-74
2022/01/11 09:23:58;;;;;;;1999.90;999.90;;;4.70;99.90;;;;;;5053235;28;20447;-72
2022/01/11 09:26:26;;;;;;;1999.90;999.90;;;4.70;99.90;;;;;;5066546;28;20470;-72
2022/01/11 09:28:53;;;;;;;1999.90;999.90;;;4.70;99.90;;;;;;5066404;28;20954;-72
2022/01/11 09:31:19;;;;;;;1999.90;999.90;;;4.60;99.90;;;;;;5064737;28;20456;-71
2022/01/11 09:33:46;;;;;;;1999.90;999.90;;;4.60;99.90;;;;;;5072243;28;20505;-72
2022/01/11 09:36:13;;;;;;;1999.90;999.90;;;4.50;99.90;;;;;;5060378;28;20477;-72
2022/01/11 09:38:39;;;;;;;1999.90;999.90;;;4.50;99.90;;;;;;5052112;28;20493;-72
2022/01/11 09:41:06;;;;;;;1999.90;999.90;;;4.50;99.90;;;;;;5061706;28;20449;-72
2022/01/11 09:43:34;;;;;;;1999.90;999.90;;;4.40;99.90;;;;;;5065107;28;20462;-72
2022/01/11 09:46:01;;;;;;;1999.90;999.90;;;4.40;99.90;;;;;;5059710;28;20469;-69
2022/01/11 09:48:32;;;;;;;1999.90;999.90;;;4.20;99.90;;;;;;5071892;28;20534;-71
2022/01/11 09:50:58;;;;;;;1999.90;999.90;;;4.30;99.90;;;;;;5063371;28;20473;-72
2022/01/11 09:53:25;;;;;;;1999.90;999.90;;;4.20;99.90;;;;;;5051423;28;20446;-73
2022/01/11 09:55:53;;;;;;;1999.90;999.90;;;4.10;99.90;;;;;;5053039;28;20524;-72
2022/01/11 09:58:20;;;;;;;1999.90;999.90;;;4.20;99.90;;;;;;5062901;28;20442;-73
2022/01/11 10:00:49;;;;;;;1999.90;999.90;;;4.10;99.90;;;;;;5066846;28;20481;-71
2022/01/11 10:03:16;;;;;;;1999.90;999.90;;;4.20;99.90;;;;;;5051815;28;20454;-71
2022/01/11 10:05:43;;;;;;;1999.90;999.90;;;4.30;99.90;;;;;;5055164;28;20546;-72
2022/01/11 10:08:22;;;;;;;1999.90;999.90;;;4.30;99.90;;;;;;5071722;28;20488;-72
2022/01/11 10:10:49;;;;;;;1999.90;999.90;;;4.30;99.90;;;;;;5071441;28;20445;-72
2022/01/11 10:13:34;;;;;;;1999.90;999.90;;;4.40;99.90;;;;;;5056956;28;20959;-72
2022/01/11 10:16:21;;;;;;;1999.90;999.90;;;4.40;99.90;;;;;;5050635;28;20482;-71
2022/01/11 10:18:48;;;;;;;1999.90;999.90;;;4.40;99.90;;;;;;5051911;28;20430;-72
2022/01/11 10:21:33;;;;;;;1999.90;999.90;;;4.50;99.90;;;;;;5051545;28;20458;-71
2022/01/11 10:23:59;;;;;;;1999.90;999.90;;;4.60;99.90;;;;;;5051589;28;20450;-73
2022/01/11 10:26:42;;;;;;;1999.90;999.90;;;4.60;99.90;;;;;;5057565;28;20474;-72
2022/01/11 10:29:24;;;;;;;1999.90;999.90;;;4.90;99.90;;;;;;5072171;28;20477;-72
2022/01/11 10:31:52;;;;;;;1999.90;999.90;;;4.90;99.90;;;;;;5071943;28;20433;-72
2022/01/11 10:34:27;;;;;;;1999.90;999.90;;;4.90;99.90;;;;;;5072484;28;20446;-72
2022/01/11 10:36:53;;;;;;;1999.90;999.90;;;4.90;99.90;;;;;;5071808;28;20788;-72
2022/01/11 10:39:32;;;;;;;1999.90;999.90;;;4.80;99.90;;;;;;5071562;28;20499;-72
2022/01/11 10:42:00;;;;;;;1999.90;999.90;;;4.70;99.90;;;;;;5059911;28;20526;-73
2022/01/11 10:44:48;;;;;;;1999.90;999.90;;;4.70;99.90;;;;;;5055076;28;20509;-73
2022/01/11 10:47:22;;;;;;;1999.90;999.90;;;4.70;99.90;;;;;;5060341;28;20469;-72
2022/01/11 10:49:54;;;;;;;1999.90;999.90;;;4.80;99.90;;;;;;5075690;28;20440;-73
2022/01/11 10:52:23;;;;;;;1999.90;999.90;;;4.90;99.90;;;;;;5075059;28;20457;-70
2022/01/11 10:54:51;;;;;;;1999.90;999.90;;;4.90;99.90;;;;;;5075834;28;20465;-71
2022/01/11 10:57:21;;;;;;;1999.90;999.90;;;5.00;99.90;;;;;;5056598;28;20446;-72
2022/01/11 11:00:22;;;;;;;1999.90;999.90;;;5.20;99.90;;;;;;5056922;28;20450;-71
2022/01/11 11:02:57;;;;;;;1999.90;999.90;;;5.20;99.90;;;;;;5054737;28;20457;-71
2022/01/11 11:05:29;;;;;;;1999.90;999.90;;;5.20;99.90;;;;;;5058589;28;20989;-71
2022/01/11 11:08:00;;;;;;;1999.90;999.90;;;5.10;99.90;;;;;;5057466;28;20565;-71
2022/01/11 11:10:30;;;;;;;1999.90;999.90;;;4.80;99.90;;;;;;5055773;28;20938;-71
2022/01/11 11:12:58;;;;;;;1999.90;999.90;;;4.90;99.90;;;;;;5056938;28;20488;-73
2022/01/11 11:15:29;;;;;;;1999.90;999.90;;;5.00;99.90;;;;;;5056814;28;20466;-71
2022/01/11 11:17:57;;;;;;;1999.90;999.90;;;5.10;99.90;;;;;;5070155;28;20429;-74
2022/01/11 11:20:24;;;;;;;1999.90;999.90;;;5.30;99.90;;;;;;5076642;28;20510;-72
2022/01/11 11:22:52;;;;;;;1999.90;999.90;;;5.30;99.90;;;;;;5075935;28;20453;-72
2022/01/11 11:25:19;;;;;;;1999.90;999.90;;;5.30;99.90;;;;;;5065149;28;20466;-76
2022/01/11 11:27:45;;;;;;;1999.90;999.90;;;5.30;99.90;;;;;;5057057;28;20478;-72
2022/01/11 11:30:12;;;;;;;1999.90;999.90;;;5.40;99.90;;;;;;5061959;28;20453;-72
2022/01/11 11:32:40;;;;;;;1999.90;999.90;;;5.20;99.90;;;;;;5062955;28;20482;-72
2022/01/11 11:35:08;;;;;;;1999.90;999.90;;;5.30;99.90;;;;;;5056888;28;20608;-69
2022/01/11 11:37:38;;;;;;;1999.90;999.90;;;5.40;99.90;;;;;;5065192;28;20477;-72
2022/01/11 11:40:08;;;;;;;1999.90;999.90;;;5.40;99.90;;;;;;5056096;28;20453;-72
2022/01/11 11:42:37;;;;;;;1999.90;999.90;;;5.50;99.90;;;;;;5056913;28;20461;-72
2022/01/11 11:45:16;;;;;;;1999.90;999.90;;;5.50;99.90;;;;;;5057837;28;20532;-72
2022/01/11 11:47:44;;;;;;;1999.90;999.90;;;5.60;99.90;;;;;;5056188;28;20513;-71
2022/01/11 11:50:15;;;;;;;1999.90;999.90;;;5.50;99.90;;;;;;5056547;28;20809;-72
2022/01/11 11:52:44;;;;;;;1999.90;999.90;;;5.40;99.90;;;;;;5075831;28;20491;-73
2022/01/11 11:55:16;;;;;;;1999.90;999.90;;;5.50;99.90;;;;;;5076421;28;20515;-72
2022/01/11 11:57:43;;;;;;;1999.90;999.90;;;5.40;99.90;;;;;;5075856;28;20475;-71
2022/01/11 12:00:16;;;;;;;1999.90;999.90;;;5.40;99.90;;;;;;5075322;28;20479;-72
2022/01/11 12:02:45;;;;;;;1999.90;999.90;;;5.30;99.90;;;;;;5077491;28;20777;-72
2022/01/11 12:05:29;;;;;;;1999.90;999.90;;;5.20;99.90;;;;;;5069524;28;20469;-72
2022/01/11 12:07:56;;;;;;;1999.90;999.90;;;5.20;99.90;;;;;;5075688;28;20527;-72
2022/01/11 12:10:45;;;;;;;1999.90;999.90;;;5.30;99.90;;;;;;5056058;28;20508;-72
2022/01/11 12:13:41;;;;;;;1999.90;999.90;;;5.20;99.90;;;;;;5054807;28;20457;-72